Portada
METAR-TAF:

METAR-TAF

Aeroports :

Orà, Algèria

latitud: 35-38N, longitud: 000-36W, altitud: 90 m

Observació

L'informe es va fer fa 24 minuts, a les 08:30 UTC
Vent 16 kt del Oest/Sud-Oest
Temperatura 26°C
Humitat 51%
Pressió 1019 hPa
Visibilitat 10 km o més
Núvols disperses a una alçada de 3000 ft

METAR: DAOO 160830Z 24016KT 9999 SCT030 26/15 Q1019

Hora: 09:54 (08:54 UTC)

Pronòstic

L'informe es va fer fa 3 hores i 54 minuts, a les 05:00 UTC
Pronòstic vàlid del 16 a les 06 UTC al 17 a les 06 UTC
Vent 16 kt del Sud-Oest
Visibilitat 10 km o més
Núvols disperses a una alçada de 3000 ft
Evolucionant progressivament
l' 16 a les 15 UTC al 16 a les 18 UTC
Vent 12 kt del Nord/Nord-Oest
Evolucionant progressivament
l' 16 a les 20 UTC al 16 a les 23 UTC
Vent 2 kt amb direcció variable

TAF: DAOO 160500Z 1606/1706 23016KT 9999 SCT030 BECMG 1615/1618 33012KT BECMG 1620/1623 VRB02KT

Observacions i pronòstics meteorològics de més de 4000 aeroports (METAR i TAF).

Les estacions disponibles són els punts grocs i vermells al mapa.

Posi el ratolí al punt desitjat per veure el nom de l'estació.

Feu clic per veure les observacions i els pronòstics meteorològics.

Per canviar el mapa: feu clic els botons verds amb una creu de color negre per apropar; al botó verd amb un guió per allunyar la imatge; o en les fletxes verdes per a mapes adjacents.


METAR-TAF: